createdAt,value
2023-12-22T00:02:19.702Z,5.48
2023-12-22T00:04:46.727Z,5.67
2023-12-22T00:07:13.381Z,5.75
2023-12-22T00:09:40.118Z,5.39
2023-12-22T00:12:07.092Z,5.46
2023-12-22T00:14:33.742Z,5.51
2023-12-22T00:17:00.380Z,5.27
2023-12-22T00:19:27.040Z,5.71
2023-12-22T00:21:53.639Z,5.42
2023-12-22T00:24:20.227Z,5.49
2023-12-22T00:26:47.104Z,5.68
2023-12-22T00:29:13.677Z,5.49
2023-12-22T00:31:40.293Z,5.32
2023-12-22T00:34:07.119Z,5.97
2023-12-22T00:36:33.729Z,5.63
2023-12-22T00:39:00.290Z,5.81
2023-12-22T00:41:26.864Z,5.78
2023-12-22T00:43:53.489Z,5.89
2023-12-22T00:46:21.144Z,5.78
2023-12-22T00:48:47.723Z,5.77
2023-12-22T00:51:14.786Z,5.71
2023-12-22T00:53:41.360Z,5.80
2023-12-22T00:56:08.349Z,5.82
2023-12-22T00:58:35.077Z,5.38
2023-12-22T01:01:01.751Z,4.72
2023-12-22T01:03:28.444Z,4.59
2023-12-22T01:05:55.207Z,4.35
2023-12-22T01:08:22.032Z,3.71
2023-12-22T01:10:49.076Z,3.87
2023-12-22T01:13:16.564Z,3.80
2023-12-22T01:15:44.854Z,3.61
2023-12-22T01:18:12.609Z,3.80
2023-12-22T01:20:39.351Z,3.78
2023-12-22T01:23:06.018Z,3.93
2023-12-22T01:25:32.674Z,3.74
2023-12-22T01:28:00.152Z,3.60
2023-12-22T01:30:27.293Z,3.86
2023-12-22T01:32:54.115Z,3.82
2023-12-22T01:35:20.712Z,3.95
2023-12-22T01:37:49.301Z,3.95
2023-12-22T01:40:16.348Z,4.00
2023-12-22T01:42:42.994Z,4.14
2023-12-22T01:45:10.192Z,3.99
2023-12-22T01:47:37.854Z,4.00
2023-12-22T01:50:05.541Z,4.04
2023-12-22T01:52:32.776Z,4.32
2023-12-22T01:54:59.611Z,4.60
2023-12-22T01:57:26.285Z,4.39
2023-12-22T01:59:53.518Z,4.39
2023-12-22T02:02:20.375Z,4.21
2023-12-22T02:04:48.704Z,4.75
2023-12-22T02:07:16.463Z,4.78
2023-12-22T02:09:43.408Z,4.61
2023-12-22T02:12:10.206Z,4.58
2023-12-22T02:14:38.313Z,4.61
2023-12-22T02:17:28.588Z,4.49
2023-12-22T02:19:59.408Z,4.58
2023-12-22T02:22:26.198Z,4.55
2023-12-22T02:24:53.099Z,4.76
2023-12-22T02:27:46.040Z,4.45
2023-12-22T02:30:27.039Z,4.81
2023-12-22T02:33:01.520Z,4.95
2023-12-22T02:35:33.674Z,5.17
2023-12-22T02:38:04.600Z,4.94
2023-12-22T02:40:33.067Z,5.07
2023-12-22T02:43:01.505Z,5.11
2023-12-22T02:45:28.456Z,5.09
2023-12-22T02:47:55.158Z,5.16
2023-12-22T02:50:21.972Z,5.03
2023-12-22T02:52:48.622Z,5.27
2023-12-22T02:55:15.346Z,5.11
2023-12-22T02:57:42.001Z,5.14
2023-12-22T03:00:09.522Z,5.55
2023-12-22T03:02:36.220Z,5.30
2023-12-22T03:05:02.886Z,5.32
2023-12-22T03:07:29.482Z,5.59
2023-12-22T03:09:56.105Z,5.18
2023-12-22T03:12:22.779Z,5.65
2023-12-22T03:14:49.623Z,5.41
2023-12-22T03:17:16.340Z,5.54
2023-12-22T03:19:43.007Z,5.35
2023-12-22T03:22:09.619Z,5.45
2023-12-22T03:24:37.538Z,5.77
2023-12-22T03:27:04.472Z,5.44
2023-12-22T03:29:31.048Z,5.40
2023-12-22T03:31:57.674Z,5.09
2023-12-22T03:34:24.300Z,5.08
2023-12-22T03:36:51.023Z,5.34
2023-12-22T03:39:17.756Z,5.32
2023-12-22T03:41:44.544Z,5.09
2023-12-22T03:44:11.284Z,5.69
2023-12-22T03:46:38.122Z,5.47
2023-12-22T03:49:04.896Z,5.91
2023-12-22T03:51:31.704Z,5.69
2023-12-22T03:53:58.363Z,5.96
2023-12-22T03:56:24.956Z,5.98
2023-12-22T03:58:51.737Z,5.90
2023-12-22T04:01:18.593Z,5.88
2023-12-22T04:03:45.271Z,6.20
2023-12-22T04:06:11.994Z,6.24
2023-12-22T04:08:38.561Z,6.23
2023-12-22T04:11:05.247Z,6.25
2023-12-22T04:13:31.825Z,6.25
2023-12-22T04:15:58.955Z,6.39
2023-12-22T04:18:25.688Z,6.25
2023-12-22T04:20:54.909Z,6.55
2023-12-22T04:23:21.725Z,6.26
2023-12-22T04:25:49.236Z,6.18
2023-12-22T04:28:15.886Z,6.06
2023-12-22T04:30:42.570Z,6.26
2023-12-22T04:33:09.273Z,6.41
2023-12-22T04:35:35.887Z,6.77
2023-12-22T04:38:02.512Z,6.40
2023-12-22T04:40:29.444Z,6.39
2023-12-22T04:42:56.359Z,6.27
2023-12-22T04:45:23.119Z,6.03
2023-12-22T04:47:50.009Z,6.10
2023-12-22T04:50:17.149Z,6.03
2023-12-22T04:52:43.782Z,6.13
2023-12-22T04:55:10.418Z,6.23
2023-12-22T04:57:36.967Z,6.24
2023-12-22T05:00:04.511Z,6.32
2023-12-22T05:02:31.112Z,6.00
2023-12-22T05:04:58.093Z,5.90
2023-12-22T05:07:24.983Z,6.18
2023-12-22T05:09:53.180Z,6.07
2023-12-22T05:12:20.826Z,6.21
2023-12-22T05:14:47.507Z,6.35
2023-12-22T05:17:14.191Z,6.17
2023-12-22T05:19:40.829Z,6.12
2023-12-22T05:22:07.496Z,6.28
2023-12-22T05:24:34.105Z,6.02
2023-12-22T05:27:00.829Z,6.08
2023-12-22T05:29:27.401Z,5.98
2023-12-22T05:31:54.051Z,6.20
2023-12-22T05:34:20.779Z,6.07
2023-12-22T05:36:47.593Z,5.97
2023-12-22T05:39:14.173Z,6.14
2023-12-22T05:41:40.828Z,6.23
2023-12-22T05:44:07.709Z,6.27
2023-12-22T05:46:42.056Z,6.27
2023-12-22T05:49:09.142Z,6.37
2023-12-22T05:51:39.404Z,6.59
2023-12-22T05:54:08.513Z,6.53
2023-12-22T05:56:35.497Z,6.55
2023-12-22T05:59:02.184Z,6.47
2023-12-22T06:01:28.971Z,6.60
2023-12-22T06:03:56.024Z,6.41
2023-12-22T06:06:23.281Z,6.44
2023-12-22T06:08:50.430Z,6.78
2023-12-22T06:11:17.308Z,6.68
2023-12-22T06:13:43.946Z,6.76
2023-12-22T06:16:15.627Z,6.72
2023-12-22T06:18:43.585Z,6.77
2023-12-22T06:21:11.556Z,7.01
2023-12-22T06:23:38.717Z,6.92
2023-12-22T06:26:13.177Z,6.89
2023-12-22T06:28:41.590Z,7.14
2023-12-22T06:31:19.423Z,7.06
2023-12-22T06:33:46.417Z,7.14
2023-12-22T06:36:25.490Z,7.03
2023-12-22T06:38:54.713Z,7.10
2023-12-22T06:41:28.401Z,6.96
2023-12-22T06:43:56.965Z,7.15
2023-12-22T06:46:27.469Z,6.99
2023-12-22T06:48:56.824Z,7.23
2023-12-22T06:51:32.558Z,7.61
2023-12-22T06:54:03.481Z,7.41
2023-12-22T06:56:36.650Z,7.09
2023-12-22T06:59:04.018Z,7.24
2023-12-22T07:01:36.474Z,7.39
2023-12-22T07:04:05.798Z,7.52
2023-12-22T07:06:35.476Z,7.64
2023-12-22T07:09:22.035Z,7.45
2023-12-22T07:11:51.980Z,7.41
2023-12-22T07:14:19.069Z,7.27
2023-12-22T07:16:46.268Z,7.38
2023-12-22T07:19:14.380Z,7.66
2023-12-22T07:21:44.705Z,7.33
2023-12-22T07:24:14.866Z,7.70
2023-12-22T07:26:42.744Z,7.45
2023-12-22T07:29:09.695Z,7.34
2023-12-22T07:31:36.384Z,7.19
2023-12-22T07:34:03.342Z,7.48
2023-12-22T07:36:29.958Z,7.57
2023-12-22T07:38:58.447Z,7.57
2023-12-22T07:41:25.408Z,7.45
2023-12-22T07:43:52.012Z,7.39
2023-12-22T07:46:21.265Z,7.57
2023-12-22T07:48:48.794Z,7.38
2023-12-22T07:51:16.278Z,7.33
2023-12-22T07:53:43.196Z,7.24
2023-12-22T07:56:12.551Z,7.05
2023-12-22T07:58:39.993Z,6.82
2023-12-22T08:01:06.877Z,6.86
2023-12-22T08:03:34.615Z,6.93
2023-12-22T08:06:01.660Z,6.93
2023-12-22T08:08:28.462Z,6.80
2023-12-22T08:10:55.181Z,6.60
2023-12-22T08:13:21.808Z,6.72
2023-12-22T08:15:48.427Z,6.76
2023-12-22T08:18:15.325Z,6.54
2023-12-22T08:20:43.821Z,6.50
2023-12-22T08:23:13.882Z,6.73
2023-12-22T08:25:44.111Z,6.55
2023-12-22T08:28:13.264Z,6.72
2023-12-22T08:30:39.958Z,6.64
2023-12-22T08:33:06.670Z,6.66
2023-12-22T08:35:33.301Z,6.58
2023-12-22T08:38:00.095Z,6.83
2023-12-22T08:40:28.264Z,6.83
2023-12-22T08:42:55.770Z,6.87
2023-12-22T08:45:22.701Z,6.77
2023-12-22T08:47:49.632Z,7.23
2023-12-22T08:50:16.541Z,7.17
2023-12-22T08:52:43.270Z,6.75
2023-12-22T08:55:09.954Z,6.75
2023-12-22T08:57:36.483Z,6.79
2023-12-22T09:00:04.717Z,6.80
2023-12-22T09:02:31.485Z,7.16
2023-12-22T09:04:58.192Z,7.06
2023-12-22T09:07:25.766Z,7.14
2023-12-22T09:09:52.561Z,7.23
2023-12-22T09:12:21.244Z,7.24
2023-12-22T09:14:47.891Z,7.54
2023-12-22T09:17:14.636Z,7.43
2023-12-22T09:19:41.605Z,7.49
2023-12-22T09:22:08.196Z,7.25
2023-12-22T09:24:35.008Z,7.27
2023-12-22T09:27:03.972Z,7.48
2023-12-22T09:29:32.770Z,7.39
2023-12-22T09:31:59.869Z,7.64
2023-12-22T09:34:28.713Z,7.36
2023-12-22T09:36:57.239Z,7.53
2023-12-22T09:39:23.984Z,7.64
2023-12-22T09:41:51.912Z,7.68
2023-12-22T09:44:22.176Z,7.66
2023-12-22T09:46:51.113Z,7.63
2023-12-22T09:49:23.418Z,7.95
2023-12-22T09:51:52.574Z,7.72
2023-12-22T09:54:20.895Z,7.94
2023-12-22T09:56:51.224Z,8.00
2023-12-22T09:59:20.297Z,8.03
2023-12-22T10:01:52.018Z,8.17
2023-12-22T10:04:18.958Z,8.21
2023-12-22T10:06:49.722Z,8.10
2023-12-22T10:09:17.653Z,8.01
2023-12-22T10:11:53.116Z,8.17
2023-12-22T10:14:23.465Z,8.31
2023-12-22T10:16:52.881Z,8.46
2023-12-22T10:19:21.761Z,8.24
2023-12-22T10:21:51.793Z,8.32
2023-12-22T10:24:40.262Z,8.32
2023-12-22T10:27:07.087Z,8.52
2023-12-22T10:29:33.964Z,8.38
2023-12-22T10:32:08.437Z,8.18
2023-12-22T10:34:36.366Z,8.66
2023-12-22T10:37:03.947Z,8.55
2023-12-22T10:39:32.719Z,8.50
2023-12-22T10:42:00.795Z,8.49
2023-12-22T10:44:29.350Z,8.55
2023-12-22T10:46:57.914Z,8.44
2023-12-22T10:49:26.460Z,8.32
2023-12-22T10:51:53.762Z,8.39
2023-12-22T10:54:21.117Z,8.45
2023-12-22T10:56:48.054Z,8.25
2023-12-22T10:59:20.039Z,8.28
2023-12-22T11:01:49.415Z,8.44
2023-12-22T11:04:21.468Z,8.33
2023-12-22T11:06:56.111Z,8.08
2023-12-22T11:09:27.125Z,8.21
2023-12-22T11:11:54.249Z,8.13
2023-12-22T11:14:22.695Z,8.38
2023-12-22T11:16:52.519Z,8.31
2023-12-22T11:19:20.326Z,8.23
2023-12-22T11:21:51.866Z,8.71
2023-12-22T11:24:20.719Z,8.23
2023-12-22T11:26:52.714Z,8.55
2023-12-22T11:29:22.825Z,8.03
2023-12-22T11:31:55.517Z,8.09
2023-12-22T11:34:25.728Z,7.94
2023-12-22T11:36:54.570Z,8.05
2023-12-22T11:39:21.828Z,8.01
2023-12-22T11:41:52.725Z,8.24
2023-12-22T11:44:20.677Z,7.99
2023-12-22T11:46:48.586Z,7.99
2023-12-22T11:49:16.707Z,8.17
2023-12-22T11:51:44.605Z,7.89
2023-12-22T11:54:52.504Z,7.78
2023-12-22T11:57:37.532Z,7.76
2023-12-22T12:00:05.743Z,7.96
2023-12-22T12:02:35.574Z,8.08
2023-12-22T12:05:04.217Z,8.16
2023-12-22T12:07:41.113Z,8.16
2023-12-22T12:10:10.137Z,8.35
2023-12-22T12:12:37.620Z,8.25
2023-12-22T12:15:14.179Z,8.41
2023-12-22T12:17:43.566Z,8.39
2023-12-22T12:20:12.232Z,8.64
2023-12-22T12:22:40.340Z,8.63
2023-12-22T12:25:18.430Z,8.23
2023-12-22T12:28:07.541Z,8.55
2023-12-22T12:30:39.303Z,8.51
2023-12-22T12:33:10.143Z,8.95
2023-12-22T12:35:43.194Z,8.75
2023-12-22T12:38:12.986Z,8.63
2023-12-22T12:40:42.407Z,8.92
2023-12-22T12:43:09.712Z,9.04
2023-12-22T12:45:36.443Z,8.69
2023-12-22T12:48:06.407Z,9.06
2023-12-22T12:50:35.641Z,9.08
2023-12-22T12:53:03.537Z,9.08
2023-12-22T12:55:31.014Z,9.24
2023-12-22T12:57:57.914Z,9.05
2023-12-22T13:00:34.021Z,9.37
2023-12-22T13:03:06.163Z,9.38
2023-12-22T13:05:36.171Z,9.43
2023-12-22T13:08:11.184Z,9.73
2023-12-22T13:10:39.828Z,9.80
2023-12-22T13:13:07.041Z,9.48
2023-12-22T13:15:33.824Z,9.73
2023-12-22T13:18:00.822Z,9.77
2023-12-22T13:20:29.338Z,9.77
2023-12-22T13:22:56.722Z,9.70
2023-12-22T13:25:25.146Z,9.53
2023-12-22T13:27:53.928Z,9.47
2023-12-22T13:30:39.031Z,9.53
2023-12-22T13:33:05.959Z,9.52
2023-12-22T13:35:33.346Z,9.73
2023-12-22T13:38:00.496Z,9.57
2023-12-22T13:40:27.385Z,9.68
2023-12-22T13:42:59.473Z,10.03
2023-12-22T13:45:27.324Z,9.89
2023-12-22T13:47:54.853Z,9.73
2023-12-22T13:50:24.556Z,9.60
2023-12-22T13:52:52.400Z,9.69
2023-12-22T13:55:24.227Z,9.63
2023-12-22T13:58:02.778Z,9.58
2023-12-22T14:00:30.825Z,9.33
2023-12-22T14:02:58.294Z,9.54
2023-12-22T14:05:25.515Z,9.40
2023-12-22T14:07:53.336Z,9.47
2023-12-22T14:10:20.152Z,9.25
2023-12-22T14:12:47.012Z,9.39
2023-12-22T14:15:14.414Z,9.50
2023-12-22T14:17:43.889Z,9.41
2023-12-22T14:20:11.643Z,9.34
2023-12-22T14:22:39.406Z,9.57
2023-12-22T14:25:07.184Z,9.58
2023-12-22T14:27:33.885Z,9.48
2023-12-22T14:30:00.619Z,9.47
2023-12-22T14:32:27.355Z,9.42
2023-12-22T14:34:54.399Z,9.62
2023-12-22T14:37:22.248Z,10.05
2023-12-22T14:39:49.381Z,9.81
2023-12-22T14:42:16.090Z,9.85
2023-12-22T14:44:42.730Z,9.94
2023-12-22T14:47:12.070Z,9.95
2023-12-22T14:49:41.128Z,9.81
2023-12-22T14:52:08.080Z,9.82
2023-12-22T14:54:34.729Z,9.95
2023-12-22T14:57:01.800Z,10.10
2023-12-22T14:59:28.868Z,9.79
2023-12-22T15:01:55.739Z,9.75
2023-12-22T15:04:22.709Z,10.16
2023-12-22T15:06:52.453Z,9.73
2023-12-22T15:09:27.199Z,10.01
2023-12-22T15:11:54.580Z,9.88
2023-12-22T15:14:22.721Z,9.96
2023-12-22T15:16:52.086Z,9.97
2023-12-22T15:19:20.399Z,9.90
2023-12-22T15:21:47.281Z,9.91
2023-12-22T15:24:13.978Z,9.89
2023-12-22T15:26:40.600Z,9.92
2023-12-22T15:29:07.561Z,10.40
2023-12-22T15:31:37.103Z,10.23
2023-12-22T15:34:06.049Z,9.92
2023-12-22T15:36:32.978Z,10.00
2023-12-22T15:39:00.394Z,9.99
2023-12-22T15:41:31.411Z,10.20
2023-12-22T15:43:58.225Z,10.07
2023-12-22T15:46:24.946Z,10.01
2023-12-22T15:48:51.651Z,10.05
2023-12-22T15:51:20.649Z,9.98
2023-12-22T15:53:48.030Z,9.92
2023-12-22T15:56:16.607Z,9.84
2023-12-22T15:58:44.358Z,9.92
2023-12-22T16:01:13.908Z,9.59
2023-12-22T16:03:42.103Z,9.68
2023-12-22T16:06:09.640Z,9.66
2023-12-22T16:08:36.992Z,9.63
2023-12-22T16:11:05.679Z,9.33
2023-12-22T16:13:34.135Z,9.33
2023-12-22T16:16:03.236Z,9.20
2023-12-22T16:18:30.466Z,9.54
2023-12-22T16:20:57.922Z,9.68
2023-12-22T16:23:24.859Z,9.37
2023-12-22T16:25:53.291Z,9.30
2023-12-22T16:28:21.333Z,9.48
2023-12-22T16:30:49.517Z,9.39
2023-12-22T16:33:17.864Z,9.53
2023-12-22T16:35:44.824Z,9.52
2023-12-22T16:38:12.132Z,9.13
2023-12-22T16:40:40.369Z,9.51
2023-12-22T16:43:07.238Z,9.50
2023-12-22T16:45:33.805Z,9.70
2023-12-22T16:48:02.168Z,9.78
2023-12-22T16:50:29.233Z,9.71
2023-12-22T16:52:56.458Z,9.58
2023-12-22T16:55:23.659Z,9.69
2023-12-22T16:57:50.997Z,9.86
2023-12-22T17:00:20.724Z,9.64
2023-12-22T17:02:47.927Z,9.74
2023-12-22T17:05:15.322Z,9.86
2023-12-22T17:07:42.653Z,10.00
2023-12-22T17:10:10.172Z,9.62
2023-12-22T17:12:36.768Z,9.91
2023-12-22T17:15:05.447Z,9.66
2023-12-22T17:17:34.305Z,9.79
2023-12-22T17:20:03.180Z,9.85
2023-12-22T17:22:31.352Z,9.98
2023-12-22T17:24:58.104Z,10.06
2023-12-22T17:27:24.753Z,9.76
2023-12-22T17:29:51.391Z,9.74
2023-12-22T17:32:19.042Z,9.64
2023-12-22T17:34:45.940Z,9.90
2023-12-22T17:37:13.803Z,9.88
2023-12-22T17:39:40.411Z,9.75
2023-12-22T17:42:07.110Z,9.82
2023-12-22T17:44:33.697Z,9.80
2023-12-22T17:47:04.595Z,9.77
2023-12-22T17:49:33.324Z,9.85
2023-12-22T17:52:00.505Z,9.59
2023-12-22T17:54:27.931Z,9.59
2023-12-22T17:56:55.068Z,9.60
2023-12-22T17:59:22.219Z,9.57
2023-12-22T18:01:50.595Z,9.75
2023-12-22T18:04:17.438Z,9.71
2023-12-22T18:06:44.059Z,9.68
2023-12-22T18:09:10.578Z,9.85
2023-12-22T18:11:42.197Z,9.76
2023-12-22T18:14:09.947Z,9.69
2023-12-22T18:16:40.513Z,9.86
2023-12-22T18:19:07.332Z,9.68
2023-12-22T18:21:34.788Z,9.84
2023-12-22T18:24:01.465Z,9.80
2023-12-22T18:26:28.682Z,9.89
2023-12-22T18:28:55.504Z,9.70
2023-12-22T18:31:22.105Z,9.78
2023-12-22T18:33:49.032Z,9.79
2023-12-22T18:36:15.700Z,9.78
2023-12-22T18:38:42.512Z,9.80
2023-12-22T18:41:12.112Z,9.82
2023-12-22T18:43:39.407Z,9.94
2023-12-22T18:46:07.181Z,10.14
2023-12-22T18:48:34.044Z,9.91
2023-12-22T18:51:01.145Z,9.78
2023-12-22T18:53:27.780Z,10.07
2023-12-22T18:55:54.675Z,10.31
2023-12-22T18:58:21.559Z,9.92
2023-12-22T19:00:48.667Z,9.71
2023-12-22T19:03:15.734Z,9.82
2023-12-22T19:05:43.099Z,9.98
2023-12-22T19:08:09.991Z,9.92
2023-12-22T19:10:36.666Z,10.00
2023-12-22T19:13:03.487Z,10.03
2023-12-22T19:15:30.442Z,9.84
2023-12-22T19:17:58.624Z,9.81
2023-12-22T19:20:26.874Z,9.84
2023-12-22T19:22:53.916Z,9.70
2023-12-22T19:25:20.834Z,9.75
2023-12-22T19:27:48.742Z,9.92
2023-12-22T19:30:17.004Z,9.94
2023-12-22T19:32:46.416Z,9.68
2023-12-22T19:35:13.904Z,9.99
2023-12-22T19:37:41.014Z,9.79
2023-12-22T19:40:08.659Z,9.78
2023-12-22T19:42:35.331Z,9.76
2023-12-22T19:45:02.500Z,9.57
2023-12-22T19:47:29.171Z,9.54
2023-12-22T19:49:55.833Z,9.53
2023-12-22T19:52:22.433Z,9.35
2023-12-22T19:54:49.073Z,9.62
2023-12-22T19:57:15.788Z,9.54
2023-12-22T19:59:42.477Z,9.95
2023-12-22T20:02:09.136Z,9.86
2023-12-22T20:04:37.065Z,9.95
2023-12-22T20:07:04.094Z,9.83
2023-12-22T20:09:30.852Z,10.00
2023-12-22T20:11:58.282Z,9.97
2023-12-22T20:14:25.129Z,9.67
2023-12-22T20:16:54.279Z,9.56
2023-12-22T20:19:26.139Z,9.66
2023-12-22T20:21:52.874Z,9.82
2023-12-22T20:24:24.717Z,9.98
2023-12-22T20:26:51.713Z,9.86
2023-12-22T20:29:19.245Z,10.10
2023-12-22T20:31:46.707Z,10.02
2023-12-22T20:34:13.286Z,10.09
2023-12-22T20:36:41.297Z,10.07
2023-12-22T20:39:07.881Z,10.29
2023-12-22T20:41:34.455Z,10.01
2023-12-22T20:44:01.102Z,10.16
2023-12-22T20:46:27.723Z,10.10
2023-12-22T20:48:54.510Z,10.04
2023-12-22T20:51:21.423Z,10.19
2023-12-22T20:53:48.169Z,9.91
2023-12-22T20:56:24.760Z,10.05
2023-12-22T20:58:51.500Z,10.42
2023-12-22T21:01:19.132Z,9.94
2023-12-22T21:03:45.896Z,10.10
2023-12-22T21:06:12.857Z,10.07
2023-12-22T21:08:39.591Z,10.20
2023-12-22T21:11:09.084Z,10.21
2023-12-22T21:13:37.149Z,9.88
2023-12-22T21:16:06.950Z,9.99
2023-12-22T21:18:34.152Z,10.14
2023-12-22T21:21:05.680Z,9.89
2023-12-22T21:23:32.764Z,10.02
2023-12-22T21:26:00.035Z,9.90
2023-12-22T21:28:28.477Z,10.07
2023-12-22T21:30:55.118Z,9.89
2023-12-22T21:33:22.257Z,10.04
2023-12-22T21:35:49.333Z,10.17
2023-12-22T21:38:16.116Z,10.01
2023-12-22T21:40:42.965Z,10.06
2023-12-22T21:43:09.590Z,10.11
2023-12-22T21:45:36.615Z,9.88
2023-12-22T21:48:04.598Z,9.89
2023-12-22T21:50:31.647Z,10.14
2023-12-22T21:52:59.356Z,10.02
2023-12-22T21:55:26.087Z,10.03
2023-12-22T21:57:53.963Z,10.15
2023-12-22T22:00:20.640Z,10.14
2023-12-22T22:02:47.300Z,9.82
2023-12-22T22:05:14.016Z,9.82
2023-12-22T22:07:40.770Z,9.94
2023-12-22T22:10:10.695Z,10.01
2023-12-22T22:12:37.438Z,10.00
2023-12-22T22:15:05.032Z,9.69
2023-12-22T22:17:31.805Z,9.62
2023-12-22T22:19:58.503Z,9.28
2023-12-22T22:22:25.413Z,9.42
2023-12-22T22:24:51.990Z,9.41
2023-12-22T22:27:18.700Z,9.54
2023-12-22T22:29:45.378Z,9.19
2023-12-22T22:32:12.456Z,9.62
2023-12-22T22:34:39.182Z,9.31
2023-12-22T22:37:05.918Z,9.38
2023-12-22T22:39:32.480Z,9.37
2023-12-22T22:41:59.386Z,9.47
2023-12-22T22:44:26.004Z,9.37
2023-12-22T22:46:53.033Z,9.30
2023-12-22T22:49:21.500Z,9.24
2023-12-22T22:51:48.239Z,9.41
2023-12-22T22:54:14.818Z,9.49
2023-12-22T22:56:43.274Z,9.21
2023-12-22T22:59:10.781Z,8.96
2023-12-22T23:01:38.125Z,8.72
2023-12-22T23:04:05.052Z,7.64
2023-12-22T23:06:32.077Z,7.64
2023-12-22T23:09:01.003Z,7.34
2023-12-22T23:11:27.881Z,7.13
2023-12-22T23:13:54.611Z,7.10
2023-12-22T23:16:21.307Z,7.15
2023-12-22T23:18:47.951Z,6.92
2023-12-22T23:21:14.855Z,7.01
2023-12-22T23:23:41.487Z,7.11
2023-12-22T23:26:08.277Z,7.00
2023-12-22T23:28:34.946Z,7.07
2023-12-22T23:31:03.583Z,6.79
2023-12-22T23:33:30.216Z,6.96
2023-12-22T23:35:58.930Z,6.64
2023-12-22T23:38:26.892Z,6.86
2023-12-22T23:40:54.167Z,6.84
2023-12-22T23:43:20.768Z,6.86
2023-12-22T23:45:47.512Z,6.82
2023-12-22T23:48:14.248Z,6.79
2023-12-22T23:50:40.994Z,7.00
2023-12-22T23:53:07.635Z,6.80
2023-12-22T23:55:34.330Z,7.11
2023-12-22T23:58:00.976Z,6.97
